Time;durP1;ratioP1;P1;durP2;ratioP2;P2;SDS_P1;SDS_P2;PMS_P1;PMS_P2;Temp;Humidity;BMP_temperature;BMP_pressure;BME280_temperature;BME280_humidity;BME280_pressure;Samples;Min_cycle;Max_cycle;Signal;HPM_P1;HPM_P2
2022/07/11 00:01:49;;;;;;;3.33;1.30;;;23.00;90.80;;;;;;5088108;28;20044;-67
2022/07/11 00:04:15;;;;;;;5.45;1.20;;;23.20;90.60;;;;;;5089887;28;20056;-66
2022/07/11 00:06:41;;;;;;;2.95;1.38;;;23.00;90.60;;;;;;5072213;28;20072;-67
2022/07/11 00:09:07;;;;;;;4.00;1.33;;;;;;;;;;5093278;28;20043;-62
2022/07/11 00:11:33;;;;;;;6.03;1.30;;;23.10;90.70;;;;;;5068441;28;20051;-63
2022/07/11 00:13:58;;;;;;;3.55;1.80;;;23.00;90.60;;;;;;5094670;28;20036;-67
2022/07/11 00:16:24;;;;;;;3.03;1.10;;;23.20;90.60;;;;;;5091074;28;20048;-67
2022/07/11 00:18:50;;;;;;;5.43;1.67;;;23.10;90.60;;;;;;5093609;28;20048;-68
2022/07/11 00:21:15;;;;;;;4.13;1.30;;;22.90;90.50;;;;;;5092586;28;20512;-66
2022/07/11 00:23:41;;;;;;;5.32;1.33;;;23.20;90.60;;;;;;5093776;28;20085;-67
2022/07/11 00:26:07;;;;;;;2.88;1.48;;;23.10;90.60;;;;;;5094423;28;20141;-62
2022/07/11 00:28:32;;;;;;;3.75;1.67;;;23.00;90.60;;;;;;5091285;28;20047;-62
2022/07/11 00:30:58;;;;;;;4.57;1.38;;;23.10;90.60;;;;;;5092381;28;20405;-63
2022/07/11 00:33:24;;;;;;;4.40;1.50;;;23.00;90.50;;;;;;5093948;28;20110;-62
2022/07/11 00:35:49;;;;;;;2.83;1.27;;;23.00;90.50;;;;;;5093221;28;20105;-66
2022/07/11 00:38:15;;;;;;;3.80;1.20;;;23.00;90.60;;;;;;5094665;28;20055;-67
2022/07/11 00:40:41;;;;;;;3.53;1.20;;;23.20;90.60;;;;;;5091801;28;20044;-67
2022/07/11 00:43:07;;;;;;;4.03;1.17;;;22.80;90.70;;;;;;5093721;28;20040;-67
2022/07/11 00:45:33;;;;;;;4.55;1.63;;;22.80;90.50;;;;;;5088527;28;20050;-67
2022/07/11 00:47:58;;;;;;;3.38;1.38;;;23.00;90.50;;;;;;5091556;28;20040;-67
2022/07/11 00:50:27;;;;;;;9.65;1.50;;;22.90;90.50;;;;;;5092709;28;20397;-62
2022/07/11 00:52:53;;;;;;;4.35;1.60;;;;;;;;;;5093020;28;20082;-62
2022/07/11 00:55:19;;;;;;;2.80;1.15;;;;;;;;;;5073311;28;20040;-63
2022/07/11 00:57:45;;;;;;;2.38;1.15;;;23.10;90.60;;;;;;5086043;28;20425;-62
2022/07/11 01:00:12;;;;;;;7.28;1.55;;;23.20;90.60;;;;;;5092810;28;20032;-62
2022/07/11 01:02:38;;;;;;;3.30;1.20;;;23.00;88.80;;;;;;5090710;28;20048;-63
2022/07/11 01:05:05;;;;;;;3.28;1.33;;;22.90;90.50;;;;;;5085693;28;20040;-62
2022/07/11 01:07:30;;;;;;;4.78;1.40;;;23.10;90.70;;;;;;5094279;28;20048;-67
2022/07/11 01:09:56;;;;;;;2.80;1.42;;;22.90;90.60;;;;;;5076063;28;20520;-62
2022/07/11 01:12:22;;;;;;;4.80;1.20;;;22.90;90.50;;;;;;5093623;28;20408;-63
2022/07/11 01:14:54;;;;;;;1.90;1.13;;;22.90;90.50;;;;;;5093211;28;20090;-61
2022/07/11 01:17:20;;;;;;;3.65;1.30;;;22.90;90.50;;;;;;5072028;28;20044;-62
2022/07/11 01:19:46;;;;;;;3.60;1.30;;;23.00;90.10;;;;;;5089132;28;20032;-66
2022/07/11 01:22:13;;;;;;;2.17;1.23;;;23.00;88.10;;;;;;5093639;28;20156;-66
2022/07/11 01:24:39;;;;;;;3.58;1.38;;;22.90;90.60;;;;;;5093291;28;20060;-67
2022/07/11 01:27:05;;;;;;;2.17;1.20;;;22.90;90.70;;;;;;5074000;28;20052;-67
2022/07/11 01:29:31;;;;;;;2.55;1.00;;;23.00;90.60;;;;;;5089502;28;20406;-67
2022/07/11 01:31:56;;;;;;;2.40;1.15;;;23.00;90.60;;;;;;5092121;28;20039;-67
2022/07/11 01:34:22;;;;;;;3.40;1.23;;;23.00;90.60;;;;;;5093283;28;20044;-68
2022/07/11 01:36:48;;;;;;;5.68;1.38;;;22.90;88.50;;;;;;5093325;28;20068;-63
2022/07/11 01:39:14;;;;;;;2.53;1.10;;;22.90;90.70;;;;;;5093157;28;20477;-62
2022/07/11 01:41:40;;;;;;;2.33;1.20;;;22.80;90.50;;;;;;5093194;28;20043;-63
2022/07/11 01:44:06;;;;;;;3.60;1.08;;;23.10;90.70;;;;;;5084648;28;20083;-63
2022/07/11 01:46:31;;;;;;;2.70;1.40;;;23.00;90.70;;;;;;5092884;28;20040;-62
2022/07/11 01:48:57;;;;;;;3.88;1.52;;;23.10;89.70;;;;;;5093005;28;20032;-63
2022/07/11 01:51:23;;;;;;;3.22;1.17;;;23.10;90.70;;;;;;5092451;28;20473;-62
2022/07/11 01:53:49;;;;;;;4.35;1.27;;;22.80;90.60;;;;;;5092265;28;20040;-61
2022/07/11 01:56:14;;;;;;;5.20;1.52;;;22.90;90.60;;;;;;5091974;28;20129;-63
2022/07/11 01:58:40;;;;;;;2.25;1.20;;;23.00;90.80;;;;;;5092034;28;20048;-61
2022/07/11 02:01:06;;;;;;;3.13;1.40;;;23.00;90.60;;;;;;5092929;28;20040;-62
2022/07/11 02:03:32;;;;;;;3.65;1.20;;;23.20;90.70;;;;;;5093049;28;20043;-62
2022/07/11 02:05:57;;;;;;;1.67;1.13;;;22.90;88.60;;;;;;5092563;28;20032;-62
2022/07/11 02:08:23;;;;;;;2.78;1.55;;;23.20;90.60;;;;;;5074146;28;20036;-66
2022/07/11 02:10:50;;;;;;;2.33;1.00;;;22.90;90.70;;;;;;5092433;28;20105;-67
2022/07/11 02:13:21;;;;;;;3.42;1.00;;;23.00;88.70;;;;;;5092324;28;20051;-67
2022/07/11 02:15:47;;;;;;;2.72;1.27;;;23.00;90.70;;;;;;5090468;28;20444;-62
2022/07/11 02:18:13;;;;;;;1.75;1.10;;;22.90;90.60;;;;;;5088784;28;20032;-62
2022/07/11 02:20:40;;;;;;;5.13;1.20;;;22.90;90.60;;;;;;5092138;28;20046;-62
2022/07/11 02:23:06;;;;;;;5.25;1.23;;;22.80;90.80;;;;;;5091722;28;20075;-62
2022/07/11 02:25:32;;;;;;;3.30;1.20;;;22.90;90.60;;;;;;5091698;28;20048;-66
2022/07/11 02:27:58;;;;;;;2.47;1.08;;;22.90;90.70;;;;;;5086798;28;20047;-67
2022/07/11 02:31:19;;;;;;;2.65;1.20;;;23.00;90.60;;;;;;5088890;28;20123;-66
2022/07/11 02:33:45;;;;;;;3.58;1.20;;;22.70;89.30;;;;;;4974989;28;20523;-67
2022/07/11 02:36:10;;;;;;;4.13;1.20;;;22.90;90.70;;;;;;4989752;28;20046;-62
2022/07/11 02:38:36;;;;;;;2.78;1.23;;;22.90;90.60;;;;;;4983495;28;20124;-63
2022/07/11 02:41:02;;;;;;;3.50;1.17;;;;;;;;;;4989674;28;20093;-62
2022/07/11 02:43:28;;;;;;;3.85;1.40;;;;;;;;;;4987578;28;20050;-65
2022/07/11 02:45:55;;;;;;;3.55;1.35;;;22.90;90.70;;;;;;4990233;28;20129;-62
2022/07/11 02:48:20;;;;;;;1.85;1.10;;;22.80;90.60;;;;;;4990127;28;20420;-63
2022/07/11 02:50:46;;;;;;;2.25;1.38;;;22.90;90.60;;;;;;4989437;28;20085;-66
2022/07/11 02:53:13;;;;;;;2.05;1.15;;;;;;;;;;4990586;28;20125;-66
2022/07/11 02:55:38;;;;;;;3.05;1.10;;;23.00;90.70;;;;;;4990073;28;20138;-67
2022/07/11 02:58:04;;;;;;;2.63;1.10;;;22.80;90.70;;;;;;4988149;28;20137;-68
2022/07/11 03:00:30;;;;;;;2.20;1.20;;;23.00;90.70;;;;;;4986702;28;20058;-67
2022/07/11 03:02:55;;;;;;;4.18;1.38;;;23.00;90.70;;;;;;4973931;28;20074;-67
2022/07/11 03:05:21;;;;;;;2.63;1.13;;;22.70;90.60;;;;;;4990097;28;20054;-67
2022/07/11 03:07:47;;;;;;;2.47;1.40;;;23.10;90.70;;;;;;5003297;28;20054;-67
2022/07/11 03:10:13;;;;;;;3.38;1.25;;;22.90;90.60;;;;;;5029136;28;20063;-67
2022/07/11 03:12:39;;;;;;;1.98;1.17;;;;;;;;;;5091832;28;20044;-67
2022/07/11 03:15:05;;;;;;;3.03;1.30;;;22.90;90.70;;;;;;5090548;28;20040;-61
2022/07/11 03:17:31;;;;;;;2.63;1.20;;;23.00;90.80;;;;;;5092047;28;20475;-62
2022/07/11 03:19:57;;;;;;;3.53;1.38;;;22.90;90.70;;;;;;5089654;28;20124;-63
2022/07/11 03:22:23;;;;;;;2.35;1.08;;;22.70;90.60;;;;;;5090853;28;20044;-68
2022/07/11 03:24:50;;;;;;;3.35;1.50;;;22.90;90.60;;;;;;5090172;28;20055;-66
2022/07/11 03:27:16;;;;;;;2.17;1.17;;;22.80;90.70;;;;;;5073667;28;20532;-68
2022/07/11 03:29:42;;;;;;;2.80;1.15;;;22.90;90.70;;;;;;5071050;28;20037;-67
2022/07/11 03:32:08;;;;;;;3.80;1.05;;;22.70;90.80;;;;;;5092486;28;20071;-67
2022/07/11 03:34:34;;;;;;;2.88;1.20;;;22.90;90.70;;;;;;5091155;28;20040;-67
2022/07/11 03:37:00;;;;;;;1.73;1.00;;;22.70;90.70;;;;;;5091631;28;20055;-68
2022/07/11 03:39:26;;;;;;;2.17;1.10;;;22.60;90.60;;;;;;5091110;28;20051;-62
2022/07/11 03:41:52;;;;;;;4.15;1.20;;;;;;;;;;5090863;28;20462;-66
2022/07/11 03:44:18;;;;;;;2.42;1.00;;;22.80;90.70;;;;;;5094970;28;20040;-62
2022/07/11 03:46:44;;;;;;;2.92;0.90;;;;;;;;;;5095640;28;20039;-61
2022/07/11 03:49:10;;;;;;;1.45;0.90;;;22.80;90.70;;;;;;5092780;28;20104;-62
2022/07/11 03:51:36;;;;;;;2.90;1.05;;;23.00;90.70;;;;;;5094603;28;20044;-62
2022/07/11 03:54:02;;;;;;;2.22;0.85;;;;;;;;;;5095013;28;20112;-68
2022/07/11 03:56:27;;;;;;;2.78;1.08;;;23.10;90.90;;;;;;5095176;28;20054;-63
2022/07/11 03:58:53;;;;;;;2.83;1.00;;;23.00;90.70;;;;;;5094460;28;20409;-62
2022/07/11 04:01:19;;;;;;;2.95;1.35;;;;;;;;;;5093650;28;20040;-65
2022/07/11 04:03:46;;;;;;;2.92;1.00;;;22.70;90.70;;;;;;5090294;28;20097;-68
2022/07/11 04:06:12;;;;;;;2.40;1.02;;;22.80;90.60;;;;;;5093930;28;20058;-67
2022/07/11 04:08:38;;;;;;;2.75;1.00;;;22.90;90.80;;;;;;5094166;28;20040;-67
2022/07/11 04:11:04;;;;;;;3.97;1.13;;;22.90;90.80;;;;;;5088151;28;20040;-67
2022/07/11 04:13:30;;;;;;;1.75;0.90;;;22.90;90.70;;;;;;5094437;28;20795;-68
2022/07/11 04:15:56;;;;;;;2.00;0.95;;;22.80;90.10;;;;;;5095782;28;20111;-68
2022/07/11 04:18:22;;;;;;;1.52;0.90;;;22.80;90.70;;;;;;5092931;28;20162;-62
2022/07/11 04:20:49;;;;;;;2.10;0.80;;;22.90;90.80;;;;;;5088786;28;20032;-62
2022/07/11 04:23:15;;;;;;;2.83;1.00;;;22.90;90.70;;;;;;5093608;28;20075;-64
2022/07/11 04:25:41;;;;;;;2.90;0.93;;;23.10;90.80;;;;;;5093346;28;20044;-64
2022/07/11 04:28:07;;;;;;;2.47;1.10;;;;;;;;;;5090166;28;20048;-69
2022/07/11 04:30:33;;;;;;;2.17;0.80;;;22.90;90.80;;;;;;5084277;28;20044;-67
2022/07/11 04:32:59;;;;;;;0.60;0.60;;;23.00;90.80;;;;;;5093120;28;20170;-67
2022/07/11 04:35:26;;;;;;;2.03;0.95;;;22.90;90.70;;;;;;5093915;28;20044;-67
2022/07/11 04:37:52;;;;;;;1.35;0.77;;;22.90;90.70;;;;;;5094104;28;20040;-67
2022/07/11 04:40:18;;;;;;;1.92;1.00;;;22.80;88.90;;;;;;5094349;28;20089;-67
2022/07/11 04:42:43;;;;;;;1.10;0.70;;;22.80;90.90;;;;;;5093998;28;20051;-67
2022/07/11 04:45:10;;;;;;;2.85;1.02;;;22.90;88.50;;;;;;5089822;28;20126;-62
2022/07/11 04:47:36;;;;;;;4.35;0.90;;;22.90;90.80;;;;;;5094000;28;20043;-62
2022/07/11 04:50:02;;;;;;;3.28;1.10;;;22.90;90.80;;;;;;5076430;28;20420;-67
2022/07/11 04:52:28;;;;;;;2.25;0.95;;;22.90;90.90;;;;;;5093081;28;20486;-67
2022/07/11 04:54:54;;;;;;;1.55;0.70;;;22.80;88.90;;;;;;5093182;28;20085;-67
2022/07/11 04:57:20;;;;;;;2.42;0.80;;;23.00;90.80;;;;;;5093855;28;20517;-67
2022/07/11 04:59:46;;;;;;;2.60;0.85;;;23.00;90.80;;;;;;5092992;28;20040;-67
2022/07/11 05:02:11;;;;;;;2.33;0.65;;;22.90;90.80;;;;;;5095044;28;20040;-67
2022/07/11 05:04:37;;;;;;;2.20;0.98;;;22.80;90.60;;;;;;5092755;28;20421;-68
2022/07/11 05:07:03;;;;;;;1.67;0.80;;;23.00;90.80;;;;;;5094440;28;20401;-67
2022/07/11 05:09:29;;;;;;;1.20;0.70;;;23.20;90.90;;;;;;5093924;28;20403;-67
2022/07/11 05:11:54;;;;;;;2.30;1.00;;;22.80;90.80;;;;;;5074659;28;20043;-61
2022/07/11 05:14:20;;;;;;;0.90;0.60;;;22.90;90.90;;;;;;5093180;28;20135;-61
2022/07/11 05:16:47;;;;;;;1.52;0.90;;;22.90;90.80;;;;;;5093295;28;20058;-61
2022/07/11 05:19:13;;;;;;;2.10;0.98;;;23.10;90.80;;;;;;5094362;28;20558;-62
2022/07/11 05:21:39;;;;;;;2.05;1.20;;;22.80;90.70;;;;;;5092649;28;20044;-66
2022/07/11 05:24:05;;;;;;;2.60;1.27;;;22.90;90.70;;;;;;5091327;28;20481;-66
2022/07/11 05:26:30;;;;;;;3.30;0.80;;;23.00;90.80;;;;;;5089757;28;20056;-67
2022/07/11 05:28:56;;;;;;;2.05;0.80;;;23.00;90.80;;;;;;5093525;28;20038;-66
2022/07/11 05:31:22;;;;;;;1.75;0.82;;;22.80;90.90;;;;;;5085028;28;20048;-67
2022/07/11 05:33:48;;;;;;;3.05;0.90;;;22.70;90.60;;;;;;5090104;28;20059;-67
2022/07/11 05:36:14;;;;;;;1.67;0.52;;;23.10;90.80;;;;;;5092625;28;20474;-67
2022/07/11 05:38:39;;;;;;;1.63;0.82;;;23.00;90.80;;;;;;5092463;28;20485;-67
2022/07/11 05:41:05;;;;;;;3.03;0.60;;;22.80;90.80;;;;;;5093195;28;20500;-67
2022/07/11 05:43:31;;;;;;;2.75;0.68;;;23.00;90.70;;;;;;5087041;28;20067;-70
2022/07/11 05:45:57;;;;;;;1.13;0.70;;;23.00;88.80;;;;;;5089790;28;20039;-67
2022/07/11 05:48:22;;;;;;;1.58;0.73;;;23.20;90.80;;;;;;5074163;28;20040;-67
2022/07/11 05:50:48;;;;;;;1.98;0.60;;;23.40;90.70;;;;;;5091911;28;20032;-67
2022/07/11 05:53:14;;;;;;;0.95;0.55;;;23.10;90.80;;;;;;5092308;28;20051;-70
2022/07/11 05:55:40;;;;;;;1.20;0.73;;;23.30;90.80;;;;;;5083074;28;20075;-70
2022/07/11 05:58:06;;;;;;;1.17;0.73;;;;;;;;;;5090999;28;20152;-70
2022/07/11 06:00:32;;;;;;;1.38;0.65;;;;;;;;;;5093221;28;20039;-69
2022/07/11 06:02:58;;;;;;;1.67;0.70;;;23.10;90.80;;;;;;5093066;28;20044;-61
2022/07/11 06:05:24;;;;;;;0.73;0.50;;;23.20;90.80;;;;;;5090716;28;20419;-62
2022/07/11 06:10:34;;;;;;;1.15;0.70;;;23.40;90.70;;;;;;5092013;28;20040;-69
2022/07/11 06:13:00;;;;;;;1.27;0.80;;;23.50;90.70;;;;;;5092122;28;20508;-69
2022/07/11 06:15:26;;;;;;;1.65;0.50;;;23.30;90.60;;;;;;5057685;28;20044;-70
2022/07/11 06:17:52;;;;;;;0.88;0.50;;;23.30;88.30;;;;;;5093044;28;20401;-70
2022/07/11 06:20:18;;;;;;;1.23;0.80;;;23.40;90.50;;;;;;5071769;28;20036;-70
2022/07/11 06:22:44;;;;;;;2.42;0.52;;;23.30;88.30;;;;;;5092538;28;20067;-70
2022/07/11 06:25:10;;;;;;;2.33;0.80;;;23.50;90.60;;;;;;5084664;28;20056;-70
2022/07/11 06:27:38;;;;;;;2.05;0.60;;;23.30;90.50;;;;;;5091551;28;20127;-68
2022/07/11 06:30:06;;;;;;;3.33;1.10;;;23.40;90.60;;;;;;5087649;28;20070;-62
2022/07/11 06:32:31;;;;;;;2.90;0.65;;;23.50;90.60;;;;;;5092892;28;20135;-69
2022/07/11 06:34:57;;;;;;;2.95;0.88;;;23.50;90.70;;;;;;5092954;28;20485;-62
2022/07/11 06:37:23;;;;;;;1.90;0.55;;;;;;;;;;5088074;28;20037;-68
2022/07/11 06:39:49;;;;;;;3.53;0.70;;;23.50;88.30;;;;;;5084700;28;20042;-64
2022/07/11 06:42:15;;;;;;;1.55;0.75;;;23.50;90.60;;;;;;5081364;28;20044;-61
2022/07/11 06:44:41;;;;;;;1.38;0.57;;;23.40;90.70;;;;;;5068226;28;20124;-61
2022/07/11 06:47:06;;;;;;;1.50;0.60;;;23.50;90.60;;;;;;5087308;28;20052;-62
2022/07/11 06:49:32;;;;;;;2.75;0.70;;;23.40;90.70;;;;;;5081142;28;20044;-61
2022/07/11 06:51:58;;;;;;;1.58;0.75;;;23.60;88.50;;;;;;5064977;28;20528;-61
2022/07/11 06:54:24;;;;;;;1.50;0.65;;;23.40;90.60;;;;;;5070933;28;20040;-61
2022/07/11 06:56:49;;;;;;;1.38;0.70;;;23.70;90.50;;;;;;5083314;28;20124;-63
2022/07/11 06:59:15;;;;;;;2.08;0.93;;;23.60;90.30;;;;;;5081172;28;20051;-60
2022/07/11 07:01:42;;;;;;;0.93;0.50;;;24.00;90.40;;;;;;5085464;28;20039;-61
2022/07/11 07:04:08;;;;;;;1.88;0.73;;;24.00;90.30;;;;;;5089402;28;20048;-62
2022/07/11 07:06:34;;;;;;;1.15;0.60;;;24.00;88.00;;;;;;5080318;28;20585;-60
2022/07/11 07:09:02;;;;;;;2.28;0.85;;;;;;;;;;5081443;28;20044;-65
2022/07/11 07:11:28;;;;;;;1.27;0.73;;;23.80;90.10;;;;;;5081233;28;20127;-62
2022/07/11 07:13:54;;;;;;;2.55;0.70;;;24.10;90.30;;;;;;5075175;28;20112;-61
2022/07/11 07:16:20;;;;;;;0.77;0.50;;;23.80;90.40;;;;;;5074126;28;20044;-61
2022/07/11 07:18:47;;;;;;;2.90;0.93;;;23.70;90.10;;;;;;5062824;28;20040;-61
2022/07/11 07:21:13;;;;;;;1.58;0.82;;;;;;;;;;5091273;28;20157;-63
2022/07/11 07:23:40;;;;;;;2.67;0.70;;;23.60;90.10;;;;;;5089008;28;20121;-62
2022/07/11 07:26:06;;;;;;;2.63;0.80;;;23.90;90.20;;;;;;5077231;28;20128;-62
2022/07/11 07:28:32;;;;;;;1.65;0.60;;;23.50;90.10;;;;;;5082097;28;20112;-61
2022/07/11 07:30:58;;;;;;;2.38;0.70;;;23.80;90.30;;;;;;5069658;28;20047;-61
2022/07/11 07:33:24;;;;;;;2.33;0.82;;;24.00;90.30;;;;;;5095869;28;20392;-62
2022/07/11 07:35:50;;;;;;;4.75;0.82;;;24.00;87.90;;;;;;5080757;28;20036;-69
2022/07/11 07:38:16;;;;;;;2.40;0.80;;;23.70;90.20;;;;;;5096922;28;20044;-65
2022/07/11 07:40:41;;;;;;;2.78;1.05;;;24.00;90.20;;;;;;5095806;28;20032;-61
2022/07/11 07:43:07;;;;;;;1.20;0.60;;;23.70;90.20;;;;;;5096055;28;20051;-61
2022/07/11 07:45:33;;;;;;;4.50;1.10;;;23.90;90.30;;;;;;5095413;28;20135;-61
2022/07/11 07:47:59;;;;;;;5.00;0.90;;;23.50;90.30;;;;;;5097186;28;20071;-61
2022/07/11 07:50:25;;;;;;;3.42;1.00;;;23.60;90.30;;;;;;5096346;28;20071;-61
2022/07/11 07:52:50;;;;;;;8.18;0.95;;;23.90;90.50;;;;;;5078595;28;20059;-62
2022/07/11 07:55:16;;;;;;;3.67;0.70;;;23.70;90.40;;;;;;5094443;28;20051;-62
2022/07/11 07:57:42;;;;;;;4.95;0.68;;;23.50;90.50;;;;;;5096257;28;20036;-62
2022/07/11 08:02:52;;;;;;;3.78;1.10;;;23.80;90.90;;;;;;5081726;28;20083;-61
2022/07/11 08:05:18;;;;;;;5.70;0.70;;;23.60;90.90;;;;;;5069225;28;20079;-61
2022/07/11 08:07:44;;;;;;;4.28;1.00;;;23.80;90.90;;;;;;5096818;28;20115;-61
2022/07/11 08:10:11;;;;;;;3.22;0.57;;;23.60;90.90;;;;;;5096236;28;20529;-61
2022/07/11 08:12:36;;;;;;;1.70;0.80;;;23.80;91.00;;;;;;5090929;28;20042;-61
2022/07/11 08:15:03;;;;;;;5.10;0.60;;;23.70;90.80;;;;;;5061642;28;20435;-61
2022/07/11 08:17:29;;;;;;;3.03;0.90;;;23.90;90.90;;;;;;5096632;28;20044;-61
2022/07/11 08:19:55;;;;;;;4.03;0.73;;;23.80;90.90;;;;;;5096597;28;20081;-61
2022/07/11 08:22:20;;;;;;;5.13;0.85;;;23.70;90.70;;;;;;5095224;28;20090;-61
2022/07/11 08:24:46;;;;;;;1.83;0.52;;;23.90;90.80;;;;;;5094391;28;20134;-61
2022/07/11 08:27:12;;;;;;;3.17;0.77;;;23.90;90.90;;;;;;5095286;28;20075;-61
2022/07/11 08:29:38;;;;;;;2.10;0.70;;;23.80;90.80;;;;;;5095755;28;20123;-61
2022/07/11 08:32:04;;;;;;;2.40;0.60;;;23.60;88.60;;;;;;5095996;28;20048;-61
2022/07/11 08:34:29;;;;;;;3.08;1.17;;;24.00;90.80;;;;;;5093720;28;20416;-62
2022/07/11 08:36:55;;;;;;;2.35;0.73;;;24.00;90.90;;;;;;5095253;28;20051;-61
2022/07/11 08:39:21;;;;;;;3.63;0.77;;;23.80;90.60;;;;;;5095860;28;20044;-62
2022/07/11 08:41:47;;;;;;;4.03;0.90;;;23.90;90.60;;;;;;5095834;28;20036;-61
2022/07/11 08:44:12;;;;;;;13.20;0.90;;;24.10;90.80;;;;;;5075744;28;20083;-63
2022/07/11 08:46:40;;;;;;;4.53;1.10;;;24.10;90.70;;;;;;5076081;28;20037;-62
2022/07/11 08:49:06;;;;;;;1.95;0.60;;;23.90;90.90;;;;;;5093064;28;20052;-61
2022/07/11 08:51:32;;;;;;;3.22;0.70;;;23.90;88.40;;;;;;5095625;28;20115;-61
2022/07/11 08:53:58;;;;;;;3.70;0.80;;;23.70;90.70;;;;;;5078177;28;20044;-61
2022/07/11 08:56:24;;;;;;;3.97;0.80;;;;;;;;;;5094380;28;20056;-61
2022/07/11 08:58:50;;;;;;;2.85;0.68;;;23.80;87.30;;;;;;5094749;28;20123;-62
2022/07/11 09:01:17;;;;;;;1.25;0.50;;;23.60;91.00;;;;;;5077432;28;20127;-62
2022/07/11 09:03:43;;;;;;;10.73;1.02;;;23.40;88.10;;;;;;5093942;28;20123;-63
2022/07/11 09:06:10;;;;;;;3.22;1.10;;;23.70;91.00;;;;;;5093580;28;20039;-61
2022/07/11 09:08:36;;;;;;;5.47;1.08;;;23.50;90.90;;;;;;5077825;28;20123;-61
2022/07/11 09:11:06;;;;;;;5.38;1.02;;;23.50;91.00;;;;;;5075222;28;20123;-61
2022/07/11 09:13:32;;;;;;;5.47;0.88;;;23.70;91.10;;;;;;5095410;28;20055;-70
2022/07/11 09:16:17;;;;;;;16.05;1.13;;;23.40;91.00;;;;;;5075055;28;20036;-65
2022/07/11 09:18:43;;;;;;;5.70;0.57;;;23.20;91.00;;;;;;5074725;28;20497;-72
2022/07/11 09:26:40;;;;;;;2.47;0.50;;;23.20;91.20;;;;;;5093464;28;20127;-62
2022/07/11 09:29:13;;;;;;;4.30;0.40;;;23.20;91.40;;;;;;5093026;28;20115;-62
2022/07/11 09:31:44;;;;;;;2.70;0.70;;;23.20;91.40;;;;;;5091001;28;20572;-61
2022/07/11 09:34:11;;;;;;;1.45;0.60;;;23.10;91.50;;;;;;5094002;28;20044;-63
2022/07/11 09:36:38;;;;;;;2.25;0.40;;;23.10;91.40;;;;;;5091825;28;20040;-61
2022/07/11 09:39:04;;;;;;;3.88;0.70;;;23.20;91.60;;;;;;5093804;28;20135;-61
2022/07/11 09:41:33;;;;;;;1.73;0.55;;;23.10;91.70;;;;;;5093731;28;20489;-62
2022/07/11 09:44:07;;;;;;;9.57;0.63;;;23.30;91.60;;;;;;5094858;28;20048;-63
2022/07/11 09:46:33;;;;;;;1.77;0.40;;;;;;;;;;5093798;28;20055;-66
2022/07/11 09:49:02;;;;;;;0.93;0.30;;;23.20;91.50;;;;;;5092239;28;20048;-63
2022/07/11 09:51:28;;;;;;;0.88;0.40;;;23.20;91.80;;;;;;5076584;28;20401;-61
2022/07/11 09:53:57;;;;;;;3.35;0.52;;;23.40;91.60;;;;;;5076545;28;20032;-61
2022/07/11 09:56:42;;;;;;;2.55;0.68;;;23.30;91.60;;;;;;5093813;28;20390;-61
2022/07/11 09:59:10;;;;;;;7.22;0.57;;;23.20;91.60;;;;;;5091704;28;20124;-62
2022/07/11 10:01:35;;;;;;;0.63;0.40;;;23.10;91.80;;;;;;5072677;28;20488;-72
2022/07/11 10:04:01;;;;;;;1.55;0.52;;;23.00;91.60;;;;;;5093654;28;20046;-67
2022/07/11 10:06:27;;;;;;;2.38;0.65;;;23.30;91.70;;;;;;5093222;28;20044;-61
2022/07/11 10:08:54;;;;;;;3.13;0.70;;;23.10;90.20;;;;;;5094069;28;20097;-62
2022/07/11 10:11:20;;;;;;;1.52;0.82;;;23.30;91.80;;;;;;5089846;28;20413;-61
2022/07/11 10:13:46;;;;;;;1.75;0.63;;;23.30;91.90;;;;;;5085782;28;20047;-62
2022/07/11 10:16:24;;;;;;;3.05;0.65;;;23.10;91.70;;;;;;5092175;28;20036;-61
2022/07/11 10:19:14;;;;;;;3.47;1.05;;;23.30;90.30;;;;;;5076183;28;20052;-61
2022/07/11 10:21:52;;;;;;;1.77;0.95;;;23.10;89.20;;;;;;5049337;28;20100;-61
2022/07/11 10:24:35;;;;;;;3.33;0.70;;;23.20;91.50;;;;;;5032956;28;20045;-61
2022/07/11 10:27:29;;;;;;;1.60;0.70;;;23.20;91.70;;;;;;5049570;28;20041;-61
2022/07/11 10:29:55;;;;;;;3.42;0.68;;;;;;;;;;5023477;28;20060;-62
2022/07/11 10:32:21;;;;;;;4.43;1.30;;;23.10;91.70;;;;;;5049997;28;20137;-61
2022/07/11 10:35:05;;;;;;;2.92;1.27;;;23.40;90.50;;;;;;5051280;28;20124;-61
2022/07/11 10:37:45;;;;;;;3.10;1.50;;;23.10;91.60;;;;;;5020729;28;20075;-61
2022/07/11 10:40:12;;;;;;;6.68;1.73;;;23.10;91.80;;;;;;5034031;28;20056;-61
2022/07/11 10:42:39;;;;;;;4.05;1.55;;;23.00;91.70;;;;;;5050804;28;20120;-63
2022/07/11 10:45:09;;;;;;;5.63;1.90;;;23.20;91.90;;;;;;5028813;28;20443;-62
2022/07/11 10:47:44;;;;;;;10.93;2.00;;;23.20;91.90;;;;;;5045492;28;20053;-62
2022/07/11 10:50:35;;;;;;;6.05;1.52;;;23.00;91.70;;;;;;5031352;28;20088;-61
2022/07/11 10:53:05;;;;;;;4.75;1.45;;;23.30;91.70;;;;;;5016560;28;20053;-61
2022/07/11 10:55:49;;;;;;;4.10;1.45;;;23.30;91.60;;;;;;5031202;28;20158;-62
2022/07/11 10:58:31;;;;;;;4.00;1.50;;;23.20;89.60;;;;;;5063446;28;20043;-60
2022/07/11 11:01:13;;;;;;;3.85;1.15;;;23.40;91.60;;;;;;5093605;28;20141;-60
2022/07/11 11:03:39;;;;;;;4.93;1.40;;;23.40;91.50;;;;;;5093430;28;20052;-61
2022/07/11 11:06:06;;;;;;;4.38;1.30;;;23.50;91.60;;;;;;5077933;28;20116;-64
2022/07/11 11:08:40;;;;;;;5.03;1.13;;;23.20;90.20;;;;;;5088092;28;20044;-62
2022/07/11 11:11:24;;;;;;;2.35;1.10;;;23.50;91.40;;;;;;5093650;28;20040;-61
2022/07/11 11:14:15;;;;;;;1.83;0.90;;;23.60;89.60;;;;;;5093565;28;20419;-61
2022/07/11 11:16:41;;;;;;;4.10;1.10;;;23.60;91.40;;;;;;5071173;28;20079;-62
2022/07/11 11:19:07;;;;;;;3.67;1.15;;;;;;;;;;5090804;28;20080;-61
2022/07/11 11:21:33;;;;;;;2.38;1.00;;;23.30;88.30;;;;;;5093592;28;20492;-63
2022/07/11 11:24:06;;;;;;;1.55;0.90;;;23.60;91.30;;;;;;5093211;28;20126;-68
2022/07/11 11:27:01;;;;;;;2.30;0.93;;;23.40;89.00;;;;;;5091456;28;20044;-61
2022/07/11 11:29:29;;;;;;;3.10;0.80;;;23.50;91.20;;;;;;5013812;28;20123;-61
2022/07/11 11:31:59;;;;;;;2.15;0.90;;;23.60;91.20;;;;;;5014716;28;20049;-61
2022/07/11 11:34:25;;;;;;;1.10;0.57;;;23.60;90.10;;;;;;5029659;28;20050;-61
2022/07/11 11:36:55;;;;;;;3.00;0.80;;;23.50;89.20;;;;;;5028912;28;20395;-62
2022/07/11 11:39:34;;;;;;;2.80;0.73;;;23.50;90.10;;;;;;5030861;28;20092;-60
2022/07/11 11:42:10;;;;;;;1.95;1.00;;;23.70;91.20;;;;;;5030886;28;20049;-61
2022/07/11 11:44:48;;;;;;;2.40;0.80;;;23.70;90.10;;;;;;5030170;28;20113;-61
2022/07/11 11:47:14;;;;;;;2.00;1.00;;;23.50;91.10;;;;;;5030580;28;20054;-61
2022/07/11 11:49:41;;;;;;;4.40;0.80;;;23.40;91.00;;;;;;5014357;28;20060;-62
2022/07/11 11:52:07;;;;;;;1.70;0.68;;;23.40;91.10;;;;;;5029457;28;20056;-61
2022/07/11 11:54:33;;;;;;;2.60;1.02;;;23.50;91.00;;;;;;5009964;28;20527;-61
2022/07/11 11:57:06;;;;;;;1.55;0.63;;;23.50;91.00;;;;;;5004999;28;20057;-61
2022/07/11 11:59:32;;;;;;;1.05;0.73;;;23.80;90.00;;;;;;5025896;28;20104;-62
2022/07/11 12:01:58;;;;;;;1.63;1.10;;;23.80;91.10;;;;;;5030615;28;20041;-63
2022/07/11 12:04:24;;;;;;;1.63;0.80;;;23.70;91.10;;;;;;5027106;28;20041;-67
2022/07/11 12:06:50;;;;;;;3.70;0.93;;;23.70;91.20;;;;;;5092202;28;20117;-65
2022/07/11 12:09:17;;;;;;;2.45;0.93;;;23.70;91.00;;;;;;5085470;28;20051;-66
2022/07/11 12:11:45;;;;;;;2.30;0.68;;;23.70;89.80;;;;;;5076453;28;20048;-66
2022/07/11 12:14:12;;;;;;;1.98;0.77;;;23.60;91.00;;;;;;5081032;28;20075;-63
2022/07/11 12:16:46;;;;;;;1.83;0.70;;;23.70;91.10;;;;;;5093236;28;20044;-63
2022/07/11 12:19:16;;;;;;;1.33;0.80;;;23.80;91.00;;;;;;5079003;28;20089;-63
2022/07/11 12:21:46;;;;;;;2.28;0.70;;;23.90;89.80;;;;;;5095183;28;20105;-61
2022/07/11 12:24:15;;;;;;;3.88;1.30;;;23.70;91.00;;;;;;5094301;28;20052;-63
2022/07/11 12:26:41;;;;;;;8.02;1.05;;;23.50;90.90;;;;;;5091366;28;20069;-63
2022/07/11 12:29:16;;;;;;;17.02;1.70;;;23.70;91.00;;;;;;5092425;28;20043;-68
2022/07/11 12:31:49;;;;;;;4.30;1.00;;;23.60;87.70;;;;;;5092743;28;20047;-62
2022/07/11 12:34:18;;;;;;;8.00;1.08;;;23.70;91.20;;;;;;5095368;28;20949;-65
2022/07/11 12:36:45;;;;;;;6.93;1.02;;;23.60;91.20;;;;;;5075936;28;20067;-61
2022/07/11 12:39:24;;;;;;;6.47;1.15;;;23.50;91.00;;;;;;5061171;28;20550;-62
2022/07/11 12:41:51;;;;;;;4.35;0.90;;;23.90;91.10;;;;;;5081520;28;20040;-62
2022/07/11 12:47:13;;;;;;;3.97;0.95;;;23.70;91.00;;;;;;5092409;28;20040;-63
2022/07/11 12:49:44;;;;;;;2.40;0.93;;;23.70;91.00;;;;;;5082204;28;20037;-61
2022/07/11 12:52:13;;;;;;;4.05;0.82;;;23.60;91.00;;;;;;5092303;28;20051;-61
2022/07/11 12:54:39;;;;;;;7.60;2.03;;;;;;;;;;5086113;28;20508;-69
2022/07/11 12:57:06;;;;;;;3.20;1.10;;;23.90;91.00;;;;;;5091810;28;20658;-61
2022/07/11 12:59:32;;;;;;;2.85;1.10;;;23.80;91.00;;;;;;5072798;28;20048;-62
2022/07/11 13:02:00;;;;;;;3.40;1.55;;;23.60;90.90;;;;;;5092422;28;20052;-61
2022/07/11 13:04:35;;;;;;;2.90;1.20;;;23.80;89.70;;;;;;5092485;28;20036;-63
2022/07/11 13:10:05;;;;;;;3.42;1.40;;;23.70;90.90;;;;;;5093194;28;20461;-61
2022/07/11 13:12:31;;;;;;;4.35;1.45;;;23.80;91.30;;;;;;5094700;28;20097;-61